createdAt,value
2024-03-06T00:00:35.000Z,96.49
2024-03-06T00:01:35.000Z,96.64
2024-03-06T00:02:36.000Z,96.76
2024-03-06T00:03:35.000Z,96.75
2024-03-06T00:04:36.000Z,96.97
2024-03-06T00:05:35.000Z,97.01
2024-03-06T00:06:36.000Z,97.01
2024-03-06T00:07:35.000Z,97.04
2024-03-06T00:08:37.000Z,97.10
2024-03-06T00:09:36.000Z,97.26
2024-03-06T00:10:36.000Z,97.16
2024-03-06T00:11:38.000Z,97.15
2024-03-06T00:12:35.000Z,97.20
2024-03-06T00:13:35.000Z,97.06
2024-03-06T00:14:36.000Z,97.03
2024-03-06T00:15:35.000Z,97.10
2024-03-06T00:16:35.000Z,97.49
2024-03-06T00:17:35.000Z,97.65
2024-03-06T00:18:35.000Z,97.72
2024-03-06T00:19:35.000Z,97.77
2024-03-06T00:20:35.000Z,97.67
2024-03-06T00:21:36.000Z,97.78
2024-03-06T00:22:35.000Z,97.87
2024-03-06T00:23:37.000Z,97.94
2024-03-06T00:24:35.000Z,98.02
2024-03-06T00:25:35.000Z,98.03
2024-03-06T00:26:35.000Z,98.30
2024-03-06T00:27:35.000Z,98.19
2024-03-06T00:28:35.000Z,98.25
2024-03-06T00:29:37.000Z,98.37
2024-03-06T00:30:35.000Z,98.42
2024-03-06T00:31:35.000Z,98.36
2024-03-06T00:32:35.000Z,98.45
2024-03-06T00:33:35.000Z,98.51
2024-03-06T00:34:35.000Z,98.45
2024-03-06T00:35:35.000Z,98.17
2024-03-06T00:36:35.000Z,98.40
2024-03-06T00:37:35.000Z,98.55
2024-03-06T00:38:35.000Z,98.83
2024-03-06T00:39:35.000Z,98.71
2024-03-06T00:40:35.000Z,98.72
2024-03-06T00:41:35.000Z,98.76
2024-03-06T00:42:36.000Z,98.84
2024-03-06T00:43:35.000Z,99.00
2024-03-06T00:44:35.000Z,98.83
2024-03-06T00:45:35.000Z,98.81
2024-03-06T00:46:35.000Z,98.83
2024-03-06T00:47:34.000Z,98.92
2024-03-06T00:48:34.000Z,99.14
2024-03-06T00:49:34.000Z,99.24
2024-03-06T00:50:34.000Z,99.33
2024-03-06T00:51:36.000Z,99.30
2024-03-06T00:52:34.000Z,99.32
2024-03-06T00:53:34.000Z,99.31
2024-03-06T00:54:35.000Z,99.29
2024-03-06T00:55:34.000Z,99.22
2024-03-06T00:56:38.000Z,99.18
2024-03-06T00:57:35.000Z,99.31
2024-03-06T00:58:34.000Z,99.36
2024-03-06T00:59:34.000Z,99.34
2024-03-06T01:00:34.000Z,99.14
2024-03-06T01:01:34.000Z,99.09
2024-03-06T01:02:36.000Z,99.07
2024-03-06T01:03:36.000Z,99.25
2024-03-06T01:04:35.000Z,99.36
2024-03-06T01:05:34.000Z,99.29
2024-03-06T01:06:34.000Z,99.30
2024-03-06T01:07:37.000Z,99.29
2024-03-06T01:08:35.000Z,99.46
2024-03-06T01:09:34.000Z,99.48
2024-03-06T01:10:35.000Z,99.39
2024-03-06T01:11:34.000Z,99.34
2024-03-06T01:12:35.000Z,99.29
2024-03-06T01:13:34.000Z,99.19
2024-03-06T01:14:34.000Z,99.17
2024-03-06T01:15:34.000Z,99.16
2024-03-06T01:16:34.000Z,99.01
2024-03-06T01:17:35.000Z,98.97
2024-03-06T01:18:35.000Z,98.93
2024-03-06T01:19:34.000Z,99.07
2024-03-06T01:20:35.000Z,99.00
2024-03-06T01:21:35.000Z,98.92
2024-03-06T01:22:35.000Z,98.85
2024-03-06T01:23:35.000Z,98.82
2024-03-06T01:24:35.000Z,98.81
2024-03-06T01:25:35.000Z,98.70
2024-03-06T01:26:35.000Z,98.55
2024-03-06T01:27:35.000Z,98.59
2024-03-06T01:28:36.000Z,98.75
2024-03-06T01:29:35.000Z,98.83
2024-03-06T01:30:35.000Z,98.78
2024-03-06T01:31:34.000Z,98.87
2024-03-06T01:32:35.000Z,98.87
2024-03-06T01:33:35.000Z,98.80
2024-03-06T01:34:35.000Z,98.47
2024-03-06T01:35:35.000Z,98.54
2024-03-06T01:36:35.000Z,98.72
2024-03-06T01:37:35.000Z,98.82
2024-03-06T01:38:34.000Z,98.82
2024-03-06T01:39:36.000Z,98.75
2024-03-06T01:40:35.000Z,98.73
2024-03-06T01:41:35.000Z,98.84
2024-03-06T01:42:35.000Z,98.80
2024-03-06T01:43:37.000Z,98.87
2024-03-06T01:44:35.000Z,98.88
2024-03-06T01:45:35.000Z,98.63
2024-03-06T01:46:35.000Z,98.48
2024-03-06T01:47:35.000Z,98.52
2024-03-06T01:48:35.000Z,98.80
2024-03-06T01:49:35.000Z,98.83
2024-03-06T01:50:35.000Z,98.88
2024-03-06T01:51:35.000Z,98.88
2024-03-06T01:52:36.000Z,98.76
2024-03-06T01:53:35.000Z,98.91
2024-03-06T01:54:35.000Z,99.00
2024-03-06T01:55:36.000Z,98.95
2024-03-06T01:56:38.000Z,99.10
2024-03-06T01:57:38.000Z,99.17
2024-03-06T01:58:35.000Z,99.26
2024-03-06T01:59:35.000Z,99.25
2024-03-06T02:00:35.000Z,99.28
2024-03-06T02:01:35.000Z,99.15
2024-03-06T02:02:35.000Z,98.98
2024-03-06T02:03:35.000Z,98.97
2024-03-06T02:04:35.000Z,98.86
2024-03-06T02:05:35.000Z,98.90
2024-03-06T02:06:35.000Z,98.93
2024-03-06T02:07:38.000Z,99.02
2024-03-06T02:08:35.000Z,99.10
2024-03-06T02:09:35.000Z,99.12
2024-03-06T02:10:35.000Z,99.08
2024-03-06T02:11:37.000Z,99.08
2024-03-06T02:12:35.000Z,99.11
2024-03-06T02:13:35.000Z,99.05
2024-03-06T02:14:35.000Z,99.05
2024-03-06T02:15:35.000Z,99.09
2024-03-06T02:16:35.000Z,99.07
2024-03-06T02:17:35.000Z,99.22
2024-03-06T02:18:36.000Z,99.36
2024-03-06T02:19:42.000Z,99.39
2024-03-06T02:20:37.000Z,99.38
2024-03-06T02:21:35.000Z,99.32
2024-03-06T02:22:35.000Z,99.27
2024-03-06T02:23:35.000Z,99.27
2024-03-06T02:24:36.000Z,99.12
2024-03-06T02:25:35.000Z,99.07
2024-03-06T02:26:35.000Z,98.93
2024-03-06T02:27:35.000Z,98.94
2024-03-06T02:28:35.000Z,98.98
2024-03-06T02:29:35.000Z,98.98
2024-03-06T02:30:36.000Z,98.98
2024-03-06T02:31:35.000Z,98.97
2024-03-06T02:32:35.000Z,98.97
2024-03-06T02:33:35.000Z,99.06
2024-03-06T02:34:35.000Z,99.01
2024-03-06T02:35:35.000Z,98.96
2024-03-06T02:36:35.000Z,98.90
2024-03-06T02:37:35.000Z,98.99
2024-03-06T02:38:36.000Z,98.74
2024-03-06T02:39:35.000Z,98.95
2024-03-06T02:40:35.000Z,99.19
2024-03-06T02:41:35.000Z,99.24
2024-03-06T02:42:35.000Z,99.33
2024-03-06T02:43:35.000Z,99.36
2024-03-06T02:44:35.000Z,99.41
2024-03-06T02:45:35.000Z,99.47
2024-03-06T02:46:35.000Z,99.42
2024-03-06T02:47:35.000Z,99.37
2024-03-06T02:48:34.000Z,99.34
2024-03-06T02:49:34.000Z,99.33
2024-03-06T02:50:34.000Z,99.33
2024-03-06T02:51:35.000Z,99.24
2024-03-06T02:52:34.000Z,99.35
2024-03-06T02:53:34.000Z,99.35
2024-03-06T02:54:34.000Z,99.29
2024-03-06T02:55:34.000Z,99.21
2024-03-06T02:56:34.000Z,99.25
2024-03-06T02:57:34.000Z,99.20
2024-03-06T02:58:34.000Z,99.22
2024-03-06T02:59:34.000Z,99.16
2024-03-06T03:00:34.000Z,99.21
2024-03-06T03:01:34.000Z,99.20
2024-03-06T03:02:34.000Z,99.22
2024-03-06T03:03:35.000Z,99.24
2024-03-06T03:04:34.000Z,99.09
2024-03-06T03:05:35.000Z,98.94
2024-03-06T03:06:34.000Z,98.78
2024-03-06T03:07:34.000Z,98.86
2024-03-06T03:08:36.000Z,98.95
2024-03-06T03:09:35.000Z,99.04
2024-03-06T03:10:34.000Z,98.81
2024-03-06T03:11:35.000Z,98.71
2024-03-06T03:12:34.000Z,98.76
2024-03-06T03:13:34.000Z,98.87
2024-03-06T03:14:34.000Z,99.11
2024-03-06T03:15:34.000Z,99.28
2024-03-06T03:16:34.000Z,99.20
2024-03-06T03:17:34.000Z,99.20
2024-03-06T03:18:34.000Z,99.05
2024-03-06T03:19:35.000Z,99.00
2024-03-06T03:20:35.000Z,98.92
2024-03-06T03:21:34.000Z,98.98
2024-03-06T03:22:36.000Z,98.93
2024-03-06T03:23:35.000Z,98.96
2024-03-06T03:24:36.000Z,98.99
2024-03-06T03:25:35.000Z,99.08
2024-03-06T03:26:35.000Z,99.10
2024-03-06T03:27:38.000Z,99.27
2024-03-06T03:28:37.000Z,99.38
2024-03-06T03:29:35.000Z,99.33
2024-03-06T03:30:35.000Z,99.43
2024-03-06T03:31:37.000Z,99.34
2024-03-06T03:32:35.000Z,99.38
2024-03-06T03:33:40.000Z,99.40
2024-03-06T03:34:35.000Z,99.38
2024-03-06T03:35:35.000Z,99.15
2024-03-06T03:36:39.000Z,99.08
2024-03-06T03:37:34.000Z,99.16
2024-03-06T03:38:38.000Z,99.06
2024-03-06T03:39:34.000Z,98.99
2024-03-06T03:40:34.000Z,99.02
2024-03-06T03:41:34.000Z,99.16
2024-03-06T03:42:35.000Z,99.17
2024-03-06T03:43:35.000Z,99.18
2024-03-06T03:44:34.000Z,99.28
2024-03-06T03:45:35.000Z,99.46
2024-03-06T03:46:34.000Z,99.76
2024-03-06T03:47:35.000Z,99.82
2024-03-06T03:48:36.000Z,100.00
2024-03-06T03:49:35.000Z,99.91
2024-03-06T03:50:34.000Z,99.62
2024-03-06T03:51:35.000Z,99.49
2024-03-06T03:52:34.000Z,99.55
2024-03-06T03:53:34.000Z,99.61
2024-03-06T03:54:34.000Z,99.58
2024-03-06T03:55:35.000Z,99.60
2024-03-06T03:56:34.000Z,99.80
2024-03-06T03:57:34.000Z,99.85
2024-03-06T03:58:34.000Z,100.00
2024-03-06T03:59:37.000Z,99.89
2024-03-06T04:00:34.000Z,99.92
2024-03-06T04:01:34.000Z,100.00
2024-03-06T04:02:34.000Z,100.00
2024-03-06T04:03:35.000Z,99.89
2024-03-06T04:04:34.000Z,99.83
2024-03-06T04:05:34.000Z,99.81
2024-03-06T04:06:34.000Z,99.73
2024-03-06T04:07:35.000Z,99.67
2024-03-06T04:08:34.000Z,99.56
2024-03-06T04:09:35.000Z,99.53
2024-03-06T04:10:34.000Z,99.51
2024-03-06T04:11:36.000Z,99.56
2024-03-06T04:12:34.000Z,99.62
2024-03-06T04:13:36.000Z,99.89
2024-03-06T04:14:34.000Z,100.00
2024-03-06T04:15:35.000Z,100.00
2024-03-06T04:16:35.000Z,100.00
2024-03-06T04:17:36.000Z,100.00
2024-03-06T04:18:34.000Z,100.00
2024-03-06T04:19:34.000Z,100.00
2024-03-06T04:20:35.000Z,100.00
2024-03-06T04:21:40.000Z,100.00
2024-03-06T04:22:35.000Z,100.00
2024-03-06T04:23:35.000Z,100.00
2024-03-06T04:24:35.000Z,100.00
2024-03-06T04:25:35.000Z,100.00
2024-03-06T04:26:35.000Z,100.00
2024-03-06T04:27:35.000Z,100.00
2024-03-06T04:28:35.000Z,100.00
2024-03-06T04:29:35.000Z,100.00
2024-03-06T04:30:35.000Z,100.00
2024-03-06T04:31:35.000Z,100.00
2024-03-06T04:32:35.000Z,100.00
2024-03-06T04:33:35.000Z,100.00
2024-03-06T04:34:35.000Z,100.00
2024-03-06T04:35:35.000Z,100.00
2024-03-06T04:36:34.000Z,100.00
2024-03-06T04:37:35.000Z,100.00
2024-03-06T04:38:35.000Z,100.00
2024-03-06T04:39:35.000Z,100.00
2024-03-06T04:40:35.000Z,100.00
2024-03-06T04:41:35.000Z,100.00
2024-03-06T04:42:38.000Z,100.00
2024-03-06T04:43:35.000Z,100.00
2024-03-06T04:44:35.000Z,100.00
2024-03-06T04:45:34.000Z,100.00
2024-03-06T04:46:35.000Z,100.00
2024-03-06T04:47:35.000Z,100.00
2024-03-06T04:48:35.000Z,100.00
2024-03-06T04:49:35.000Z,100.00
2024-03-06T04:50:35.000Z,100.00
2024-03-06T04:51:34.000Z,100.00
2024-03-06T04:52:35.000Z,100.00
2024-03-06T04:53:35.000Z,100.00
2024-03-06T04:54:35.000Z,100.00
2024-03-06T04:55:37.000Z,100.00
2024-03-06T04:56:34.000Z,100.00
2024-03-06T04:57:36.000Z,100.00
2024-03-06T04:58:34.000Z,100.00
2024-03-06T04:59:34.000Z,100.00
2024-03-06T05:00:34.000Z,100.00
2024-03-06T05:01:34.000Z,100.00
2024-03-06T05:02:36.000Z,100.00
2024-03-06T05:04:05.000Z,100.00
2024-03-06T05:05:05.000Z,100.00
2024-03-06T05:06:10.000Z,100.00
2024-03-06T05:58:35.000Z,100.00
2024-03-06T05:59:35.000Z,100.00
2024-03-06T06:00:35.000Z,100.00
2024-03-06T06:01:35.000Z,100.00
2024-03-06T06:02:35.000Z,100.00
2024-03-06T06:03:35.000Z,100.00
2024-03-06T06:04:35.000Z,100.00
2024-03-06T06:05:38.000Z,100.00
2024-03-06T06:06:35.000Z,100.00
2024-03-06T06:07:35.000Z,100.00
2024-03-06T06:08:35.000Z,100.00
2024-03-06T06:09:35.000Z,100.00
2024-03-06T06:10:35.000Z,100.00
2024-03-06T06:11:35.000Z,100.00
2024-03-06T06:12:35.000Z,100.00
2024-03-06T06:13:35.000Z,100.00
2024-03-06T06:14:35.000Z,100.00
2024-03-06T06:15:35.000Z,100.00
2024-03-06T06:16:39.000Z,100.00
2024-03-06T06:17:35.000Z,100.00
2024-03-06T06:18:35.000Z,100.00
2024-03-06T06:19:35.000Z,100.00
2024-03-06T06:20:35.000Z,100.00
2024-03-06T06:21:36.000Z,100.00
2024-03-06T06:22:36.000Z,100.00
2024-03-06T06:23:35.000Z,100.00
2024-03-06T06:24:35.000Z,100.00
2024-03-06T06:25:35.000Z,100.00
2024-03-06T06:26:34.000Z,100.00
2024-03-06T06:27:35.000Z,100.00
2024-03-06T06:28:36.000Z,100.00
2024-03-06T06:29:34.000Z,100.00
2024-03-06T06:30:35.000Z,100.00
2024-03-06T06:31:35.000Z,100.00
2024-03-06T06:32:35.000Z,100.00
2024-03-06T06:33:34.000Z,100.00
2024-03-06T06:34:34.000Z,100.00
2024-03-06T06:35:35.000Z,100.00
2024-03-06T06:36:36.000Z,100.00
2024-03-06T06:37:35.000Z,100.00
2024-03-06T06:38:35.000Z,100.00
2024-03-06T06:39:34.000Z,100.00
2024-03-06T06:40:35.000Z,100.00
2024-03-06T06:41:35.000Z,100.00
2024-03-06T06:42:35.000Z,100.00
2024-03-06T06:43:35.000Z,100.00
2024-03-06T06:44:35.000Z,100.00
2024-03-06T06:45:35.000Z,100.00
2024-03-06T06:46:34.000Z,100.00
2024-03-06T06:47:34.000Z,100.00
2024-03-06T06:48:34.000Z,100.00
2024-03-06T06:49:34.000Z,100.00
2024-03-06T06:50:35.000Z,100.00
2024-03-06T06:51:35.000Z,100.00
2024-03-06T06:52:35.000Z,100.00
2024-03-06T06:53:34.000Z,100.00
2024-03-06T06:54:34.000Z,100.00
2024-03-06T06:55:35.000Z,100.00
2024-03-06T06:56:35.000Z,100.00
2024-03-06T06:57:34.000Z,100.00
2024-03-06T06:58:34.000Z,100.00
2024-03-06T06:59:34.000Z,100.00
2024-03-06T07:00:36.000Z,100.00
2024-03-06T07:01:34.000Z,100.00
2024-03-06T07:02:34.000Z,100.00
2024-03-06T07:03:34.000Z,100.00
2024-03-06T07:04:34.000Z,100.00
2024-03-06T07:05:34.000Z,100.00
2024-03-06T07:06:34.000Z,100.00
2024-03-06T07:07:35.000Z,100.00
2024-03-06T07:08:34.000Z,100.00
2024-03-06T07:09:34.000Z,100.00
2024-03-06T07:10:35.000Z,100.00
2024-03-06T07:11:34.000Z,100.00
2024-03-06T07:12:35.000Z,100.00
2024-03-06T07:13:34.000Z,100.00
2024-03-06T07:14:34.000Z,100.00
2024-03-06T07:15:34.000Z,100.00
2024-03-06T07:16:41.000Z,100.00
2024-03-06T07:17:34.000Z,100.00
2024-03-06T07:18:34.000Z,100.00
2024-03-06T07:19:34.000Z,100.00
2024-03-06T07:20:34.000Z,100.00
2024-03-06T07:21:34.000Z,100.00
2024-03-06T07:22:34.000Z,100.00
2024-03-06T07:23:34.000Z,100.00
2024-03-06T07:24:34.000Z,100.00
2024-03-06T07:25:34.000Z,100.00
2024-03-06T07:26:35.000Z,100.00
2024-03-06T07:27:35.000Z,100.00
2024-03-06T07:28:35.000Z,100.00
2024-03-06T07:29:35.000Z,100.00
2024-03-06T07:30:34.000Z,100.00
2024-03-06T07:31:36.000Z,100.00
2024-03-06T07:32:34.000Z,100.00
2024-03-06T07:33:37.000Z,100.00
2024-03-06T07:34:34.000Z,100.00
2024-03-06T07:35:36.000Z,100.00
2024-03-06T07:36:35.000Z,100.00
2024-03-06T07:37:34.000Z,100.00
2024-03-06T07:38:35.000Z,100.00
2024-03-06T07:39:35.000Z,100.00
2024-03-06T07:40:34.000Z,100.00
2024-03-06T07:41:35.000Z,100.00
2024-03-06T07:42:34.000Z,100.00
2024-03-06T07:43:34.000Z,100.00
2024-03-06T07:44:35.000Z,100.00
2024-03-06T07:45:34.000Z,100.00
2024-03-06T07:46:35.000Z,100.00
2024-03-06T07:47:35.000Z,100.00
2024-03-06T07:48:38.000Z,100.00
2024-03-06T07:49:35.000Z,100.00
2024-03-06T07:50:34.000Z,100.00
2024-03-06T07:51:35.000Z,100.00
2024-03-06T07:52:35.000Z,100.00
2024-03-06T07:53:35.000Z,100.00
2024-03-06T07:54:34.000Z,100.00
2024-03-06T07:55:34.000Z,100.00
2024-03-06T07:56:34.000Z,100.00
2024-03-06T07:57:34.000Z,100.00
2024-03-06T07:58:35.000Z,100.00
2024-03-06T07:59:35.000Z,100.00
2024-03-06T08:00:35.000Z,100.00
2024-03-06T08:01:34.000Z,100.00
2024-03-06T08:02:35.000Z,100.00
2024-03-06T08:03:34.000Z,100.00
2024-03-06T08:04:35.000Z,100.00
2024-03-06T08:05:34.000Z,100.00
2024-03-06T08:06:37.000Z,100.00
2024-03-06T08:07:34.000Z,100.00
2024-03-06T08:08:35.000Z,100.00
2024-03-06T08:09:34.000Z,100.00
2024-03-06T08:10:34.000Z,100.00
2024-03-06T08:11:34.000Z,100.00
2024-03-06T08:12:35.000Z,100.00
2024-03-06T08:13:35.000Z,100.00
2024-03-06T08:14:34.000Z,100.00
2024-03-06T08:15:34.000Z,100.00
2024-03-06T08:16:35.000Z,100.00
2024-03-06T08:17:35.000Z,100.00
2024-03-06T08:18:36.000Z,100.00
2024-03-06T08:19:35.000Z,100.00
2024-03-06T08:20:35.000Z,100.00
2024-03-06T08:21:34.000Z,100.00
2024-03-06T08:22:40.000Z,100.00
2024-03-06T08:23:34.000Z,100.00
2024-03-06T08:24:34.000Z,100.00
2024-03-06T08:25:35.000Z,100.00
2024-03-06T08:26:35.000Z,100.00
2024-03-06T08:27:38.000Z,100.00
2024-03-06T08:28:35.000Z,100.00
2024-03-06T08:29:35.000Z,100.00
2024-03-06T08:30:35.000Z,100.00
2024-03-06T08:31:35.000Z,100.00
2024-03-06T08:32:35.000Z,100.00
2024-03-06T08:33:35.000Z,100.00
2024-03-06T08:34:35.000Z,100.00
2024-03-06T08:35:35.000Z,100.00
2024-03-06T08:36:35.000Z,100.00
2024-03-06T08:37:35.000Z,100.00
2024-03-06T08:38:35.000Z,100.00
2024-03-06T08:39:35.000Z,100.00
2024-03-06T08:40:35.000Z,100.00
2024-03-06T08:41:35.000Z,100.00
2024-03-06T08:42:35.000Z,100.00
2024-03-06T08:43:35.000Z,100.00
2024-03-06T08:44:35.000Z,100.00
2024-03-06T08:45:35.000Z,100.00
2024-03-06T08:46:35.000Z,100.00
2024-03-06T08:47:35.000Z,100.00
2024-03-06T08:48:35.000Z,100.00
2024-03-06T08:49:35.000Z,100.00
2024-03-06T08:50:35.000Z,100.00
2024-03-06T08:51:35.000Z,100.00
2024-03-06T08:52:35.000Z,100.00
2024-03-06T08:53:35.000Z,100.00
2024-03-06T08:54:35.000Z,100.00
2024-03-06T08:55:35.000Z,100.00
2024-03-06T08:56:35.000Z,100.00
2024-03-06T08:57:36.000Z,100.00
2024-03-06T08:58:35.000Z,100.00
2024-03-06T08:59:35.000Z,100.00
2024-03-06T09:00:35.000Z,100.00
2024-03-06T09:01:35.000Z,100.00
2024-03-06T09:02:35.000Z,100.00
2024-03-06T09:03:35.000Z,100.00
2024-03-06T09:04:35.000Z,100.00
2024-03-06T09:05:35.000Z,100.00
2024-03-06T09:06:35.000Z,100.00
2024-03-06T09:07:40.000Z,100.00
2024-03-06T09:08:35.000Z,100.00
2024-03-06T09:09:36.000Z,100.00
2024-03-06T09:10:35.000Z,100.00
2024-03-06T09:11:35.000Z,100.00
2024-03-06T09:12:35.000Z,100.00
2024-03-06T09:13:35.000Z,100.00
2024-03-06T09:14:35.000Z,100.00
2024-03-06T09:15:35.000Z,100.00
2024-03-06T09:16:35.000Z,100.00
2024-03-06T09:17:35.000Z,100.00
2024-03-06T09:18:35.000Z,99.79
2024-03-06T09:19:35.000Z,99.79
2024-03-06T09:20:35.000Z,99.99
2024-03-06T09:21:35.000Z,99.91
2024-03-06T09:22:37.000Z,99.72
2024-03-06T09:23:35.000Z,99.60
2024-03-06T09:24:36.000Z,98.85
2024-03-06T09:25:35.000Z,97.87
2024-03-06T09:26:35.000Z,97.50
2024-03-06T09:27:36.000Z,97.09
2024-03-06T09:28:35.000Z,96.53
2024-03-06T09:29:35.000Z,96.60
2024-03-06T09:30:35.000Z,97.99
2024-03-06T09:31:35.000Z,98.66
2024-03-06T09:32:35.000Z,99.59
2024-03-06T09:33:35.000Z,99.67
2024-03-06T09:34:35.000Z,99.36
2024-03-06T09:35:35.000Z,99.05
2024-03-06T09:36:35.000Z,98.54
2024-03-06T09:37:35.000Z,97.60
2024-03-06T09:38:37.000Z,96.87
2024-03-06T09:39:35.000Z,97.12
2024-03-06T09:40:35.000Z,96.78
2024-03-06T09:41:35.000Z,97.56
2024-03-06T09:42:35.000Z,97.40
2024-03-06T09:43:35.000Z,97.93
2024-03-06T09:44:35.000Z,97.44
2024-03-06T09:45:36.000Z,97.25
2024-03-06T09:46:35.000Z,97.12
2024-03-06T09:47:36.000Z,97.69
2024-03-06T09:48:37.000Z,98.58
2024-03-06T09:49:35.000Z,98.15
2024-03-06T09:50:37.000Z,97.79
2024-03-06T09:51:36.000Z,97.44
2024-03-06T09:52:36.000Z,97.49
2024-03-06T09:53:35.000Z,97.75
2024-03-06T09:54:35.000Z,97.48
2024-03-06T09:55:35.000Z,97.96
2024-03-06T09:56:34.000Z,98.27
2024-03-06T09:57:35.000Z,98.18
2024-03-06T09:58:34.000Z,98.25
2024-03-06T09:59:34.000Z,98.15
2024-03-06T10:00:35.000Z,97.38
2024-03-06T10:01:38.000Z,97.24
2024-03-06T10:02:38.000Z,96.98
2024-03-06T10:03:35.000Z,97.75
2024-03-06T10:04:36.000Z,97.74
2024-03-06T10:05:34.000Z,97.02
2024-03-06T10:06:34.000Z,97.09
2024-03-06T10:07:34.000Z,97.35
2024-03-06T10:08:35.000Z,97.40
2024-03-06T10:09:34.000Z,97.48
2024-03-06T10:10:34.000Z,96.76
2024-03-06T10:11:40.000Z,96.39
2024-03-06T10:12:34.000Z,96.08
2024-03-06T10:13:34.000Z,95.87
2024-03-06T10:14:35.000Z,96.09
2024-03-06T10:15:37.000Z,95.19
2024-03-06T10:16:36.000Z,95.62
2024-03-06T10:17:34.000Z,95.77
2024-03-06T10:18:35.000Z,95.62
2024-03-06T10:19:34.000Z,95.61
2024-03-06T10:20:34.000Z,95.79
2024-03-06T10:21:34.000Z,94.83
2024-03-06T10:22:34.000Z,93.90
2024-03-06T10:23:34.000Z,93.90
2024-03-06T10:24:34.000Z,94.05
2024-03-06T10:25:34.000Z,94.37
2024-03-06T10:26:34.000Z,94.50
2024-03-06T10:27:35.000Z,95.04
2024-03-06T10:28:35.000Z,95.17
2024-03-06T10:29:35.000Z,94.80
2024-03-06T10:30:42.000Z,94.70
2024-03-06T10:31:34.000Z,94.38
2024-03-06T10:32:34.000Z,93.89
2024-03-06T10:33:35.000Z,93.26
2024-03-06T10:34:35.000Z,93.63
2024-03-06T10:35:37.000Z,92.98
2024-03-06T10:36:35.000Z,93.22
2024-03-06T10:37:36.000Z,93.47
2024-03-06T10:38:37.000Z,93.67
2024-03-06T10:39:41.000Z,93.14
2024-03-06T10:40:36.000Z,92.71
2024-03-06T10:41:35.000Z,92.17
2024-03-06T10:42:36.000Z,91.43
2024-03-06T10:43:38.000Z,91.06
2024-03-06T10:44:51.000Z,91.75
2024-03-06T10:45:44.000Z,91.52
2024-03-06T10:46:35.000Z,91.69
2024-03-06T10:47:35.000Z,92.08
2024-03-06T10:48:36.000Z,92.56
2024-03-06T10:49:36.000Z,92.15
2024-03-06T10:50:35.000Z,91.01
2024-03-06T10:51:35.000Z,90.56
2024-03-06T10:52:37.000Z,90.98
2024-03-06T10:53:37.000Z,90.12
2024-03-06T10:54:39.000Z,89.39
2024-03-06T10:55:35.000Z,89.89
2024-03-06T10:56:35.000Z,90.24
2024-03-06T10:57:36.000Z,90.41
2024-03-06T10:58:36.000Z,90.73
2024-03-06T10:59:35.000Z,90.74
2024-03-06T11:00:37.000Z,90.63
2024-03-06T11:01:34.000Z,90.73
2024-03-06T11:02:35.000Z,91.26
2024-03-06T11:03:37.000Z,91.38
2024-03-06T11:04:35.000Z,92.68
2024-03-06T11:05:35.000Z,92.49
2024-03-06T11:06:34.000Z,91.76
2024-03-06T11:07:35.000Z,91.46
2024-03-06T11:08:35.000Z,91.50
2024-03-06T11:09:36.000Z,91.67
2024-03-06T11:10:36.000Z,92.03
2024-03-06T11:11:47.000Z,90.60
2024-03-06T11:12:38.000Z,90.35
2024-03-06T11:13:39.000Z,90.24
2024-03-06T11:14:38.000Z,90.55
2024-03-06T11:15:34.000Z,90.11
2024-03-06T11:16:54.000Z,90.95
2024-03-06T11:17:34.000Z,90.04
2024-03-06T11:18:49.000Z,89.51
2024-03-06T11:19:44.000Z,89.75
2024-03-06T11:20:34.000Z,90.13
2024-03-06T11:21:45.000Z,90.34
2024-03-06T11:22:44.000Z,90.16
2024-03-06T11:23:37.000Z,90.40
2024-03-06T11:24:34.000Z,90.86
2024-03-06T11:25:44.000Z,90.66
2024-03-06T11:26:35.000Z,89.73
2024-03-06T11:27:54.000Z,90.25
2024-03-06T11:28:36.000Z,90.13
2024-03-06T11:29:44.000Z,91.66
2024-03-06T11:30:46.000Z,91.04
2024-03-06T11:31:34.000Z,90.86
2024-03-06T11:32:34.000Z,91.06
2024-03-06T11:33:37.000Z,91.00
2024-03-06T11:34:35.000Z,90.46
2024-03-06T11:35:34.000Z,90.64
2024-03-06T11:36:39.000Z,91.01
2024-03-06T11:37:35.000Z,90.05
2024-03-06T11:38:37.000Z,89.70
2024-03-06T11:39:37.000Z,89.61
2024-03-06T11:40:47.000Z,89.42
2024-03-06T11:41:46.000Z,89.67
2024-03-06T11:42:38.000Z,89.57
2024-03-06T11:43:41.000Z,90.77
2024-03-06T11:44:35.000Z,90.48
2024-03-06T11:45:43.000Z,89.29
2024-03-06T11:46:42.000Z,89.62
2024-03-06T11:47:54.000Z,89.87
2024-03-06T11:48:35.000Z,89.44
2024-03-06T11:49:34.000Z,88.87
2024-03-06T11:50:34.000Z,89.59
2024-03-06T11:51:34.000Z,89.43
2024-03-06T11:52:34.000Z,88.43
2024-03-06T11:53:39.000Z,88.26
2024-03-06T11:54:35.000Z,87.57
2024-03-06T11:55:34.000Z,86.37
2024-03-06T11:56:38.000Z,86.27
2024-03-06T11:57:34.000Z,85.21
2024-03-06T11:58:34.000Z,85.61
2024-03-06T11:59:35.000Z,85.56
2024-03-06T12:00:34.000Z,86.13
2024-03-06T12:01:36.000Z,85.46
2024-03-06T12:02:38.000Z,86.85
2024-03-06T12:03:34.000Z,85.57
2024-03-06T12:04:36.000Z,85.39
2024-03-06T12:05:34.000Z,85.16
2024-03-06T12:06:36.000Z,85.41
2024-03-06T12:07:44.000Z,85.22
2024-03-06T12:08:38.000Z,85.53
2024-03-06T12:09:38.000Z,84.85
2024-03-06T12:10:38.000Z,83.97
2024-03-06T12:11:36.000Z,84.22
2024-03-06T12:12:34.000Z,82.64
2024-03-06T12:13:35.000Z,83.26
2024-03-06T12:14:35.000Z,83.20
2024-03-06T12:15:35.000Z,83.66
2024-03-06T12:16:34.000Z,84.37
2024-03-06T12:17:42.000Z,83.47
2024-03-06T12:18:34.000Z,83.49
2024-03-06T12:19:35.000Z,84.39
2024-03-06T12:20:41.000Z,82.88
2024-03-06T12:21:34.000Z,83.35
2024-03-06T12:22:35.000Z,83.37
2024-03-06T12:23:34.000Z,82.28
2024-03-06T12:24:34.000Z,82.30
2024-03-06T12:25:34.000Z,81.96
2024-03-06T12:26:36.000Z,81.95
2024-03-06T12:27:34.000Z,82.73
2024-03-06T12:28:35.000Z,82.36
2024-03-06T12:29:35.000Z,82.23
2024-03-06T12:30:41.000Z,82.17
2024-03-06T12:31:37.000Z,82.03
2024-03-06T12:32:34.000Z,82.08
2024-03-06T12:33:35.000Z,82.35
2024-03-06T12:34:35.000Z,82.15
2024-03-06T12:35:36.000Z,82.93
2024-03-06T12:36:35.000Z,82.63
2024-03-06T12:37:35.000Z,82.25
2024-03-06T12:38:34.000Z,82.28
2024-03-06T12:39:35.000Z,82.39
2024-03-06T12:40:34.000Z,81.91
2024-03-06T12:41:35.000Z,81.46
2024-03-06T12:42:35.000Z,81.62
2024-03-06T12:43:34.000Z,82.56
2024-03-06T12:44:35.000Z,83.22
2024-03-06T12:45:35.000Z,83.25
2024-03-06T12:46:35.000Z,82.68
2024-03-06T12:47:34.000Z,82.98
2024-03-06T12:48:34.000Z,83.77
2024-03-06T12:49:34.000Z,83.54
2024-03-06T12:50:35.000Z,83.98
2024-03-06T12:51:34.000Z,83.86
2024-03-06T12:52:35.000Z,84.24
2024-03-06T12:53:35.000Z,83.93
2024-03-06T12:54:35.000Z,84.32
2024-03-06T12:55:35.000Z,83.70
2024-03-06T12:56:35.000Z,84.12
2024-03-06T12:57:34.000Z,84.03
2024-03-06T12:58:35.000Z,84.23
2024-03-06T12:59:34.000Z,84.60
2024-03-06T13:00:34.000Z,84.73
2024-03-06T13:01:35.000Z,84.71
2024-03-06T13:02:34.000Z,83.83
2024-03-06T13:03:35.000Z,84.32
2024-03-06T13:04:34.000Z,84.27
2024-03-06T13:05:35.000Z,84.44
2024-03-06T13:06:34.000Z,84.85
2024-03-06T13:07:36.000Z,84.64
2024-03-06T13:08:36.000Z,84.38
2024-03-06T13:09:35.000Z,84.78
2024-03-06T13:10:35.000Z,85.71
2024-03-06T13:11:35.000Z,86.16
2024-03-06T13:12:35.000Z,86.40
2024-03-06T13:13:35.000Z,86.30
2024-03-06T13:14:34.000Z,86.18
2024-03-06T13:15:35.000Z,85.84
2024-03-06T13:16:35.000Z,86.31
2024-03-06T13:17:35.000Z,85.82
2024-03-06T13:18:34.000Z,86.74
2024-03-06T13:19:35.000Z,87.93
2024-03-06T13:20:35.000Z,88.16
2024-03-06T13:21:35.000Z,87.97
2024-03-06T13:22:35.000Z,88.77
2024-03-06T13:23:35.000Z,88.50
2024-03-06T13:24:35.000Z,88.82
2024-03-06T13:25:35.000Z,88.52
2024-03-06T13:26:37.000Z,88.21
2024-03-06T13:27:35.000Z,87.54
2024-03-06T13:28:35.000Z,88.03
2024-03-06T13:29:35.000Z,88.55
2024-03-06T13:30:35.000Z,88.96
2024-03-06T13:31:35.000Z,88.99
2024-03-06T13:32:34.000Z,89.62
2024-03-06T13:33:35.000Z,89.46
2024-03-06T13:34:35.000Z,89.58
2024-03-06T13:35:34.000Z,89.56
2024-03-06T13:36:34.000Z,89.66